Time;durP1;ratioP1;P1;durP2;ratioP2;P2;SDS_P1;SDS_P2;PMS_P1;PMS_P2;Temp;Humidity;BMP_temperature;BMP_pressure;BME280_temperature;BME280_humidity;BME280_pressure;Samples;Min_cycle;Max_cycle;Signal;HPM_P1;HPM_P2
2021/06/24 07:46:40;;;;;;;4.83;4.60;;;22.40;42.40;;;;;;4922235;29;20760;-79
2021/06/24 07:49:31;;;;;;;4.50;4.20;;;22.50;42.50;;;;;;4904981;29;20428;-78
2021/06/24 07:51:57;;;;;;;5.90;4.60;;;22.60;42.60;;;;;;4921467;29;21053;-78
2021/06/24 07:54:22;;;;;;;4.50;4.30;;;22.60;42.60;;;;;;4922169;29;20459;-79
2021/06/24 07:56:48;;;;;;;5.27;4.87;;;22.60;42.60;;;;;;4951589;29;20451;-77
2021/06/24 08:00:04;;;;;;;4.70;4.40;;;22.60;43.00;;;;;;4957956;28;20175;-78
2021/06/24 08:03:34;;;;;;;5.20;4.90;;;22.60;42.60;;;;;;4905929;29;20208;-79
2021/06/24 08:10:05;;;;;;;4.63;4.43;;;22.60;42.40;;;;;;4923785;29;20793;-81
2021/06/24 08:13:37;;;;;;;5.00;4.60;;;22.70;42.60;;;;;;4812436;29;20510;-81
2021/06/24 08:34:01;;;;;;;4.50;4.30;;;22.60;42.60;;;;;;4754126;30;20487;-79
2021/06/24 08:47:38;;;;;;;4.53;4.33;;;22.70;41.70;;;;;;4763519;30;20435;-80
2021/06/24 08:50:17;;;;;;;4.40;4.20;;;22.70;41.60;;;;;;4786706;29;20718;-79
2021/06/24 08:53:35;;;;;;;4.60;4.30;;;22.70;41.40;;;;;;4810772;29;20453;-80
2021/06/24 09:03:25;;;;;;;4.70;4.50;;;22.70;41.10;;;;;;4808792;29;20521;-84
2021/06/24 09:16:54;;;;;;;4.80;4.60;;;22.80;40.40;;;;;;4772781;30;20435;-79
2021/06/24 09:47:37;;;;;;;6.27;5.40;;;23.00;40.30;;;;;;4772003;30;20445;-83
2021/06/24 09:54:39;;;;;;;5.53;5.10;;;23.10;40.10;;;;;;4757246;30;20490;-85
2021/06/24 09:57:45;;;;;;;5.30;4.90;;;23.10;39.80;;;;;;4780526;30;20439;-79
2021/06/24 10:07:27;;;;;;;5.40;5.17;;;23.10;39.80;;;;;;4781834;30;20426;-79
2021/06/24 10:24:30;;;;;;;5.03;4.60;;;23.20;39.30;;;;;;4847710;29;20448;-79
2021/06/24 10:27:43;;;;;;;4.70;4.43;;;23.20;39.10;;;;;;4894176;29;20448;-77
2021/06/24 10:31:21;;;;;;;6.20;5.70;;;23.20;39.00;;;;;;4897291;29;20468;-79
2021/06/24 10:34:52;;;;;;;5.23;4.93;;;23.10;38.70;;;;;;4936862;29;20416;-77
2021/06/24 10:37:54;;;;;;;5.33;5.13;;;23.20;39.00;;;;;;4937864;29;20426;-79
2021/06/24 10:41:40;;;;;;;5.07;4.77;;;23.20;39.00;;;;;;4914223;29;20416;-79
2021/06/24 10:45:05;;;;;;;5.30;4.90;;;23.20;39.20;;;;;;4941853;29;20435;-80
2021/06/24 10:48:09;;;;;;;5.10;4.80;;;23.20;39.40;;;;;;4910715;29;20452;-80
2021/06/24 10:51:37;;;;;;;5.37;5.07;;;23.20;39.10;;;;;;4936225;29;20467;-79
2021/06/24 10:55:24;;;;;;;5.33;5.00;;;23.20;39.10;;;;;;4932499;29;20479;-79
2021/06/24 10:59:16;;;;;;;5.13;4.83;;;23.20;38.80;;;;;;4827658;29;20428;-79
2021/06/24 11:05:16;;;;;;;4.87;4.50;;;23.20;38.00;;;;;;4812097;29;20423;-78
2021/06/24 11:08:25;;;;;;;5.30;4.03;;;23.20;36.60;;;;;;4836574;29;20430;-79
2021/06/24 11:11:50;;;;;;;4.50;4.30;;;23.20;37.00;;;;;;4822558;29;20501;-78
2021/06/24 11:15:08;;;;;;;4.10;3.90;;;23.20;36.80;;;;;;4868475;29;20509;-79
2021/06/24 11:18:32;;;;;;;4.40;4.20;;;23.30;37.50;;;;;;4920107;29;20419;-79
2021/06/24 11:21:55;;;;;;;4.73;4.43;;;23.30;37.50;;;;;;4916823;29;20476;-80
2021/06/24 11:28:45;;;;;;;4.00;3.90;;;23.40;36.90;;;;;;4938251;29;20447;-78
2021/06/24 11:35:42;;;;;;;3.83;3.73;;;23.40;35.90;;;;;;4939547;29;20407;-79
2021/06/24 11:42:20;;;;;;;3.90;3.60;;;23.40;35.60;;;;;;4940170;29;20519;-79
2021/06/24 11:45:47;;;;;;;4.60;4.17;;;23.40;35.40;;;;;;4900185;29;20798;-80
2021/06/24 21:26:52;;;;;;;3.43;3.33;;;22.80;40.30;;;;;;4526594;27;20491;-79
2021/06/24 21:29:28;;;;;;;3.33;3.23;;;22.80;40.30;;;;;;4865881;29;20423;-79
2021/06/24 21:32:18;;;;;;;3.03;2.93;;;22.80;40.30;;;;;;4852093;29;20482;-79
2021/06/24 21:35:36;;;;;;;3.50;3.03;;;22.80;40.50;;;;;;4847885;29;20416;-80
2021/06/24 21:38:03;;;;;;;3.00;2.90;;;22.80;40.50;;;;;;4836522;29;20434;-80
2021/06/24 21:40:28;;;;;;;3.30;3.10;;;22.80;40.50;;;;;;4864150;29;20913;-80
2021/06/24 21:42:54;;;;;;;3.00;2.90;;;22.80;40.40;;;;;;4863672;29;20812;-79
2021/06/24 21:45:19;;;;;;;3.07;2.97;;;22.80;40.40;;;;;;4863678;29;20182;-80
2021/06/24 21:47:45;;;;;;;3.13;3.03;;;22.90;40.50;;;;;;4863756;29;20183;-80
2021/06/24 21:50:11;;;;;;;2.93;2.73;;;22.90;40.50;;;;;;4863739;29;20753;-80
2021/06/24 21:52:37;;;;;;;3.10;3.00;;;22.90;40.50;;;;;;4863159;29;20297;-80
2021/06/24 21:55:04;;;;;;;3.23;3.13;;;22.90;40.50;;;;;;4846479;29;20507;-80
2021/06/24 21:57:31;;;;;;;3.37;3.17;;;22.90;40.40;;;;;;4863482;29;20210;-80
2021/06/24 21:59:57;;;;;;;3.00;2.90;;;22.90;40.40;;;;;;4863278;29;20415;-80
2021/06/24 22:02:23;;;;;;;3.10;3.00;;;22.90;40.40;;;;;;4862946;29;20439;-80
2021/06/24 22:04:48;;;;;;;2.70;2.60;;;22.90;41.10;;;;;;4863196;29;20258;-80
2021/06/24 22:07:14;;;;;;;2.90;2.80;;;22.90;40.40;;;;;;4863081;29;20431;-80
2021/06/24 22:09:40;;;;;;;3.00;2.90;;;22.90;40.40;;;;;;4846872;29;20416;-80
2021/06/24 22:12:06;;;;;;;3.10;3.00;;;22.90;40.30;;;;;;4846254;29;20225;-80
2021/06/24 22:14:32;;;;;;;3.17;3.07;;;22.90;40.30;;;;;;4863273;29;20171;-79
2021/06/24 22:16:57;;;;;;;3.10;3.00;;;22.90;40.40;;;;;;4863357;29;20422;-80
2021/06/24 22:19:23;;;;;;;3.20;3.00;;;22.90;40.30;;;;;;4846005;29;20178;-80
2021/06/24 22:21:50;;;;;;;2.80;2.70;;;22.90;40.30;;;;;;4844450;29;20198;-80
2021/06/24 22:24:16;;;;;;;2.60;2.50;;;22.90;40.30;;;;;;4845274;29;20284;-80
2021/06/24 22:26:42;;;;;;;3.20;3.00;;;22.90;40.30;;;;;;4845438;29;20530;-80
2021/06/24 22:29:10;;;;;;;2.80;2.70;;;22.90;40.30;;;;;;4861607;29;20854;-80
2021/06/24 22:31:40;;;;;;;2.90;2.80;;;22.90;40.30;;;;;;4845071;29;20309;-80
2021/06/24 22:34:05;;;;;;;3.03;2.93;;;22.90;40.30;;;;;;4830811;29;20423;-80
2021/06/24 22:36:32;;;;;;;3.00;2.90;;;22.90;41.00;;;;;;4846605;29;20483;-80
2021/06/24 22:38:58;;;;;;;3.03;2.93;;;22.90;40.20;;;;;;4831693;29;20279;-79
2021/06/24 22:41:24;;;;;;;3.10;3.00;;;22.90;40.30;;;;;;4863178;29;20865;-80
2021/06/24 22:43:52;;;;;;;2.87;2.67;;;22.90;40.30;;;;;;4863557;29;20191;-80
2021/06/24 22:46:18;;;;;;;2.90;2.80;;;22.90;40.20;;;;;;4847230;29;20969;-80
2021/06/24 22:48:46;;;;;;;2.83;2.73;;;22.90;40.20;;;;;;4846318;29;20175;-80
2021/06/24 22:51:18;;;;;;;3.23;3.13;;;22.90;40.20;;;;;;4861450;29;20581;-79
2021/06/24 22:53:47;;;;;;;3.30;3.17;;;22.90;40.20;;;;;;4846330;29;20420;-80
2021/06/24 22:56:13;;;;;;;3.00;2.90;;;22.90;40.30;;;;;;4846229;29;20514;-80
2021/06/24 22:58:39;;;;;;;3.00;2.90;;;22.90;40.20;;;;;;4846278;29;20511;-79
2021/06/24 23:01:04;;;;;;;3.17;3.07;;;22.90;40.20;;;;;;4863292;29;20232;-80
2021/06/24 23:03:30;;;;;;;2.80;2.70;;;22.90;40.20;;;;;;4846734;29;20194;-80
2021/06/24 23:06:04;;;;;;;2.70;2.60;;;22.90;40.20;;;;;;4845625;29;20248;-79
2021/06/24 23:08:37;;;;;;;2.70;2.60;;;22.90;40.20;;;;;;4846332;29;20189;-80
2021/06/24 23:11:04;;;;;;;3.00;2.90;;;22.90;40.20;;;;;;4862171;29;20441;-80
2021/06/24 23:13:32;;;;;;;2.77;2.67;;;22.90;40.20;;;;;;4846027;29;20447;-80
2021/06/24 23:15:57;;;;;;;2.80;2.70;;;22.90;40.20;;;;;;4830984;29;20507;-80
2021/06/24 23:18:23;;;;;;;3.00;2.90;;;22.80;40.10;;;;;;4846512;29;20863;-80
2021/06/24 23:20:49;;;;;;;2.63;2.53;;;22.90;40.20;;;;;;4845993;29;20258;-80
2021/06/24 23:23:24;;;;;;;3.10;3.00;;;22.90;40.20;;;;;;4845258;29;20697;-81
2021/06/24 23:26:00;;;;;;;3.13;3.03;;;22.90;40.80;;;;;;4830511;29;20451;-81
2021/06/24 23:28:28;;;;;;;2.87;2.67;;;22.80;40.10;;;;;;4862038;29;20427;-81
2021/06/24 23:30:53;;;;;;;2.70;2.60;;;22.90;40.20;;;;;;4847292;29;20774;-81
2021/06/24 23:33:19;;;;;;;2.60;2.50;;;22.90;40.20;;;;;;4848112;29;20654;-80
2021/06/24 23:35:45;;;;;;;2.60;2.50;;;22.80;40.10;;;;;;4848208;29;20556;-80
2021/06/24 23:38:10;;;;;;;2.70;2.60;;;22.90;40.20;;;;;;4864656;29;20178;-79
2021/06/24 23:40:36;;;;;;;3.07;2.93;;;22.80;40.00;;;;;;4848317;29;20190;-80
2021/06/24 23:43:01;;;;;;;2.73;2.63;;;22.90;40.10;;;;;;4864485;29;20206;-80
2021/06/24 23:48:36;;;;;;;2.50;2.40;;;22.90;40.10;;;;;;4842930;29;20302;-80
2021/06/24 23:51:02;;;;;;;2.50;2.40;;;22.90;40.10;;;;;;4827281;29;20880;-80
2021/06/24 23:53:28;;;;;;;2.90;2.80;;;22.90;40.10;;;;;;4842818;29;20464;-80
2021/06/24 23:55:59;;;;;;;2.80;2.70;;;22.80;40.00;;;;;;4843778;29;20474;-80
2021/06/24 23:58:25;;;;;;;2.70;2.60;;;22.80;40.00;;;;;;4844313;29;20194;-81
